Time;durP1;ratioP1;P1;durP2;ratioP2;P2;SDS_P1;SDS_P2;PMS_P1;PMS_P2;Temp;Humidity;BMP_temperature;BMP_pressure;BME280_temperature;BME280_humidity;BME280_pressure;Samples;Min_cycle;Max_cycle;Signal;HPM_P1;HPM_P2
2021/01/21 15:32:10;;;;;;;53.30;25.95;;;-1.70;95.00;;;;;;5101478;27;20480;-96
2021/01/21 15:34:36;;;;;;;54.80;27.33;;;-1.80;95.70;;;;;;5084062;28;20021;-94
2021/01/21 15:37:01;;;;;;;53.67;26.17;;;-1.80;95.90;;;;;;5085219;28;20077;-95
2021/01/21 15:39:27;;;;;;;53.58;26.63;;;-1.70;96.10;;;;;;5075870;28;20020;-95
2021/01/21 15:41:53;;;;;;;56.83;27.55;;;-1.60;96.20;;;;;;5086457;28;20020;-95
2021/01/21 16:41:06;;;;;;;45.58;22.35;;;-1.60;95.80;;;;;;5072724;28;20933;-93
2021/01/21 16:43:32;;;;;;;57.35;26.88;;;-1.50;96.40;;;;;;5063521;28;20025;-94
2021/01/21 16:45:57;;;;;;;65.10;30.05;;;-1.50;96.70;;;;;;5058690;28;20029;-94
2021/01/21 16:48:39;;;;;;;57.75;29.50;;;-1.40;96.70;;;;;;5053997;28;20029;-96
2021/01/21 16:51:07;;;;;;;53.72;25.48;;;-1.30;96.80;;;;;;5048531;28;20044;-96
2021/01/21 16:53:32;;;;;;;56.10;26.40;;;-1.20;96.80;;;;;;5052301;28;20025;-96
2021/01/21 16:55:58;;;;;;;54.88;29.00;;;-1.10;96.70;;;;;;5065439;28;20362;-95
2021/01/21 16:58:24;;;;;;;47.28;25.13;;;-1.00;96.70;;;;;;5053053;28;20532;-94
2021/01/21 17:00:50;;;;;;;50.10;27.63;;;-1.00;96.50;;;;;;5057509;28;20112;-96
2021/01/21 17:03:16;;;;;;;53.20;26.13;;;-0.90;96.40;;;;;;5070133;28;20413;-95
2021/01/21 17:05:42;;;;;;;56.53;26.80;;;-0.80;96.30;;;;;;5064519;28;20074;-95
2021/01/21 17:08:08;;;;;;;55.45;28.70;;;-0.80;96.30;;;;;;5070308;28;20562;-96
2021/01/21 17:10:34;;;;;;;58.70;30.08;;;-0.80;96.20;;;;;;5056286;28;20029;-96
2021/01/21 17:12:59;;;;;;;57.40;30.98;;;-0.80;96.00;;;;;;5052149;28;20465;-94
2021/01/21 17:15:25;;;;;;;54.60;26.70;;;-0.70;95.90;;;;;;5055658;28;20075;-96
2021/01/21 17:17:51;;;;;;;62.95;31.52;;;-0.70;95.80;;;;;;5071430;28;20021;-96
2021/01/21 17:20:20;;;;;;;53.80;29.80;;;-0.70;95.70;;;;;;5080859;28;20515;-96
2021/01/21 17:22:47;;;;;;;60.40;30.63;;;-0.70;95.60;;;;;;5070655;28;20086;-96
2021/01/21 17:25:13;;;;;;;56.67;29.85;;;-0.60;95.50;;;;;;5072028;28;20054;-96
2021/01/21 17:27:41;;;;;;;56.10;30.00;;;-0.70;95.50;;;;;;5075069;28;20115;-96
2021/01/21 17:30:23;;;;;;;67.35;32.88;;;-0.60;95.50;;;;;;5076918;28;20508;-96
2021/01/21 17:32:49;;;;;;;61.90;31.48;;;-0.60;95.40;;;;;;5069304;28;20049;-95
2021/01/21 17:35:14;;;;;;;60.53;31.50;;;-0.70;95.30;;;;;;5049791;28;20049;-94
2021/01/21 17:37:40;;;;;;;54.08;29.27;;;-0.60;95.30;;;;;;5049817;28;20025;-96
2021/01/21 17:40:07;;;;;;;60.22;31.17;;;-0.60;95.30;;;;;;5050348;28;20061;-96
2021/01/21 17:42:33;;;;;;;56.53;30.60;;;-0.60;95.30;;;;;;5052349;28;20025;-96
2021/01/21 17:44:59;;;;;;;54.80;31.42;;;-0.60;95.20;;;;;;5049484;28;20025;-93
2021/01/21 17:47:25;;;;;;;58.70;29.65;;;-0.60;95.30;;;;;;5051151;28;20027;-96
2021/01/21 17:49:51;;;;;;;54.72;29.02;;;-0.60;95.30;;;;;;5051118;28;20036;-94
2021/01/21 17:52:17;;;;;;;43.60;23.90;;;-0.60;95.30;;;;;;5040665;28;20108;-96
2021/01/21 17:54:43;;;;;;;63.38;32.08;;;-0.60;95.30;;;;;;5036148;28;20025;-94
2021/01/21 17:57:10;;;;;;;65.65;32.78;;;-0.50;95.20;;;;;;5036452;28;20413;-93
2021/01/21 17:59:35;;;;;;;70.50;33.92;;;-0.60;95.20;;;;;;5028374;28;20029;-93
2021/01/21 18:02:01;;;;;;;60.53;29.38;;;-0.50;95.20;;;;;;5032012;28;20036;-94
2021/01/21 18:04:27;;;;;;;58.80;28.73;;;-0.50;95.20;;;;;;5015465;28;20029;-92
2021/01/21 18:06:53;;;;;;;53.42;28.02;;;-0.50;95.20;;;;;;5033075;28;20075;-96
2021/01/21 18:09:18;;;;;;;66.90;33.17;;;-0.50;95.20;;;;;;5035063;28;20470;-93
2021/01/21 18:11:44;;;;;;;62.28;32.30;;;-0.50;95.20;;;;;;5035125;28;20022;-93
2021/01/21 18:14:10;;;;;;;62.22;33.42;;;-0.50;95.20;;;;;;5035131;28;20036;-94
2021/01/21 18:16:36;;;;;;;57.35;31.02;;;-0.40;95.20;;;;;;5035130;28;20033;-96
2021/01/21 18:19:01;;;;;;;57.25;31.02;;;-0.40;95.30;;;;;;5035048;28;20022;-94
2021/01/21 18:21:27;;;;;;;62.22;31.17;;;-0.40;95.30;;;;;;5034925;28;20120;-93
2021/01/21 18:23:54;;;;;;;61.97;29.98;;;-0.50;95.30;;;;;;5029070;28;20033;-93
2021/01/21 18:26:19;;;;;;;61.38;31.08;;;-0.40;95.30;;;;;;5036332;28;20466;-93
2021/01/21 18:28:45;;;;;;;57.63;29.40;;;-0.40;95.30;;;;;;5036197;28;20036;-94
2021/01/21 18:31:10;;;;;;;65.53;33.42;;;-0.40;95.30;;;;;;5034804;28;20033;-94
2021/01/21 18:33:36;;;;;;;62.38;34.15;;;-0.40;95.30;;;;;;5035026;28;20026;-95
2021/01/21 18:36:05;;;;;;;65.47;31.92;;;-0.30;95.30;;;;;;5034268;28;20025;-95
2021/01/21 18:38:30;;;;;;;69.50;34.72;;;-0.30;95.40;;;;;;5034745;28;20022;-94
2021/01/21 18:40:56;;;;;;;64.55;32.67;;;-0.30;95.40;;;;;;5034801;28;20103;-93
2021/01/21 18:43:22;;;;;;;64.28;32.30;;;-0.30;95.40;;;;;;5035104;28;20355;-93
2021/01/21 18:45:48;;;;;;;65.30;32.88;;;-0.30;95.40;;;;;;5034816;28;20507;-94
2021/01/21 18:48:14;;;;;;;61.13;29.52;;;-0.30;95.40;;;;;;5051470;28;20477;-95
2021/01/21 18:50:40;;;;;;;64.18;33.05;;;-0.30;95.40;;;;;;5034568;28;20026;-93
2021/01/21 18:53:06;;;;;;;64.80;34.00;;;-0.30;95.30;;;;;;5034031;28;20028;-94
2021/01/21 18:55:32;;;;;;;68.07;34.58;;;-0.20;95.40;;;;;;5034620;28;20018;-95
2021/01/21 18:57:58;;;;;;;70.55;35.55;;;-0.20;95.40;;;;;;5022583;28;20017;-95
2021/01/21 19:00:24;;;;;;;70.50;34.95;;;-0.20;95.40;;;;;;5049950;28;20088;-95
2021/01/21 19:02:50;;;;;;;67.00;31.98;;;-0.20;95.40;;;;;;5041912;28;20040;-94
2021/01/21 19:05:16;;;;;;;71.05;35.75;;;-0.20;95.40;;;;;;5044978;28;20086;-95
2021/01/21 19:07:42;;;;;;;73.18;34.17;;;-0.10;95.40;;;;;;5054997;28;20032;-96
2021/01/21 19:10:09;;;;;;;65.95;31.73;;;-0.10;95.40;;;;;;5054297;28;20036;-94
2021/01/21 19:12:35;;;;;;;65.25;33.30;;;-0.10;95.50;;;;;;5054653;28;20051;-95
2021/01/21 19:15:01;;;;;;;68.63;35.08;;;-0.10;95.50;;;;;;5054169;28;20461;-96
2021/01/21 19:17:28;;;;;;;76.57;37.58;;;-0.10;95.50;;;;;;5054185;28;20116;-95
2021/01/21 19:19:58;;;;;;;76.53;37.22;;;0.00;95.60;;;;;;5054121;28;20052;-96
2021/01/21 19:22:24;;;;;;;72.22;34.92;;;0.00;95.60;;;;;;5055555;28;20483;-95
2021/01/21 19:24:54;;;;;;;79.68;38.33;;;0.00;95.60;;;;;;5055787;28;20031;-96
2021/01/21 19:27:20;;;;;;;85.47;39.47;;;0.00;95.60;;;;;;5057440;22;20046;-93
2021/01/21 19:29:46;;;;;;;88.93;41.30;;;0.10;95.60;;;;;;5019012;28;20041;-94
2021/01/21 19:32:13;;;;;;;69.15;32.83;;;0.10;95.70;;;;;;5017418;28;20128;-96
2021/01/21 19:34:43;;;;;;;77.53;35.90;;;0.10;95.70;;;;;;5014747;28;20083;-95
2021/01/21 19:37:10;;;;;;;88.55;37.30;;;0.10;95.70;;;;;;5022414;28;20042;-94
2021/01/21 19:39:35;;;;;;;79.28;37.58;;;0.10;95.80;;;;;;5013873;28;20116;-95
2021/01/21 19:42:02;;;;;;;84.28;40.65;;;0.20;95.80;;;;;;5014929;28;20084;-95
2021/01/21 19:44:28;;;;;;;68.25;30.65;;;0.20;95.80;;;;;;4999542;28;20033;-94
2021/01/21 19:46:55;;;;;;;84.38;38.22;;;0.20;95.80;;;;;;5010999;28;20030;-93
2021/01/21 19:49:21;;;;;;;87.70;40.65;;;0.30;95.90;;;;;;5014820;28;20022;-94
2021/01/21 19:51:47;;;;;;;79.45;36.50;;;0.30;95.80;;;;;;5013484;28;20088;-94
2021/01/21 19:56:44;;;;;;;87.68;39.30;;;0.30;95.70;;;;;;5125085;27;20420;-94
2021/01/21 19:59:10;;;;;;;91.20;39.15;;;0.40;95.90;;;;;;5090445;28;20362;-94
2021/01/21 20:01:36;;;;;;;87.65;42.72;;;0.40;96.00;;;;;;5090834;28;20399;-94
2021/01/21 20:04:03;;;;;;;84.80;40.08;;;0.50;96.00;;;;;;5091305;28;20028;-95
2021/01/21 20:06:34;;;;;;;87.97;40.42;;;0.50;96.00;;;;;;5090955;28;20399;-94
2021/01/21 20:09:00;;;;;;;95.80;42.80;;;0.50;96.00;;;;;;5090297;28;20082;-95
2021/01/21 20:11:26;;;;;;;84.00;41.55;;;0.50;95.90;;;;;;5090375;28;20032;-93
2021/01/21 20:13:52;;;;;;;96.47;44.60;;;0.60;95.90;;;;;;5090455;28;20032;-94
2021/01/21 20:16:18;;;;;;;102.18;45.28;;;0.60;95.90;;;;;;5091279;28;20531;-93
2021/01/21 20:18:43;;;;;;;98.70;47.05;;;0.70;95.90;;;;;;5090628;28;20033;-95
2021/01/21 20:21:09;;;;;;;77.03;34.58;;;0.70;95.90;;;;;;5089973;28;20044;-95
2021/01/21 20:23:34;;;;;;;81.68;41.53;;;0.70;95.90;;;;;;5090115;28;20388;-94
2021/01/21 20:26:00;;;;;;;89.57;43.00;;;0.70;95.90;;;;;;5089893;28;20111;-93
2021/01/21 20:28:26;;;;;;;87.53;41.70;;;0.70;95.90;;;;;;5090225;28;20037;-94
2021/01/21 20:30:52;;;;;;;82.03;40.30;;;0.80;95.90;;;;;;5090159;28;20472;-95
2021/01/21 21:00:07;;;;;;;69.57;31.75;;;0.30;96.20;;;;;;5097353;27;20372;-94
2021/01/21 21:02:32;;;;;;;77.82;37.95;;;0.20;96.70;;;;;;5061454;28;20029;-95
2021/01/21 21:04:58;;;;;;;77.70;36.00;;;0.30;96.90;;;;;;5061791;28;20039;-94
2021/01/21 21:07:24;;;;;;;75.82;36.00;;;0.30;97.20;;;;;;5067361;28;20037;-95
2021/01/21 21:09:50;;;;;;;77.68;37.40;;;0.40;97.20;;;;;;5053386;28;20104;-95
2021/01/21 21:12:16;;;;;;;80.30;38.83;;;0.40;97.30;;;;;;5066170;28;20043;-95
2021/01/21 21:14:41;;;;;;;81.72;39.58;;;0.50;97.30;;;;;;5068398;28;20469;-96
2021/01/21 21:17:07;;;;;;;77.80;37.28;;;0.60;97.10;;;;;;5053591;28;20021;-95
2021/01/21 21:19:33;;;;;;;85.93;39.25;;;0.70;97.20;;;;;;5054845;28;20036;-96
2021/01/21 21:21:58;;;;;;;83.63;38.50;;;0.70;97.10;;;;;;5058201;28;20053;-96
